createdAt,value
2023-03-11T00:00:47.187Z,84.31
2023-03-11T00:03:15.400Z,84.72
2023-03-11T00:05:46.022Z,84.98
2023-03-11T00:08:15.328Z,85.91
2023-03-11T00:10:43.788Z,86.37
2023-03-11T00:13:12.171Z,86.32
2023-03-11T00:15:39.796Z,85.21
2023-03-11T00:18:09.972Z,85.79
2023-03-11T00:20:39.063Z,85.45
2023-03-11T00:23:07.026Z,85.91
2023-03-11T00:25:34.552Z,86.64
2023-03-11T00:28:01.434Z,86.16
2023-03-11T00:30:28.753Z,85.62
2023-03-11T00:32:57.008Z,85.83
2023-03-11T00:35:29.021Z,86.08
2023-03-11T00:37:58.603Z,85.23
2023-03-11T00:40:26.869Z,85.31
2023-03-11T00:42:53.360Z,86.35
2023-03-11T00:45:21.090Z,85.31
2023-03-11T00:47:47.678Z,85.97
2023-03-11T00:50:17.937Z,86.22
2023-03-11T00:52:46.031Z,86.62
2023-03-11T00:55:15.210Z,87.13
2023-03-11T00:57:42.677Z,87.72
2023-03-11T01:00:12.866Z,87.02
2023-03-11T01:02:39.507Z,86.50
2023-03-11T01:05:06.551Z,86.20
2023-03-11T01:07:33.652Z,86.43
2023-03-11T01:10:00.752Z,86.08
2023-03-11T01:12:27.382Z,86.02
2023-03-11T01:14:54.402Z,86.43
2023-03-11T01:17:22.194Z,86.70
2023-03-11T01:19:49.454Z,87.05
2023-03-11T01:22:16.306Z,87.05
2023-03-11T01:24:42.859Z,86.26
2023-03-11T01:27:09.338Z,86.21
2023-03-11T01:29:35.866Z,87.07
2023-03-11T01:32:02.283Z,87.08
2023-03-11T01:34:28.767Z,86.77
2023-03-11T01:36:55.232Z,86.40
2023-03-11T01:39:21.704Z,86.82
2023-03-11T01:41:48.151Z,86.94
2023-03-11T01:44:14.598Z,87.26
2023-03-11T01:46:53.166Z,86.15
2023-03-11T01:49:21.702Z,86.17
2023-03-11T01:51:51.900Z,87.57
2023-03-11T01:54:22.044Z,87.01
2023-03-11T01:56:49.461Z,86.34
2023-03-11T01:59:19.308Z,86.57
2023-03-11T02:02:14.870Z,86.37
2023-03-11T02:04:42.101Z,87.62
2023-03-11T02:07:10.063Z,86.04
2023-03-11T02:09:36.850Z,87.37
2023-03-11T02:12:04.691Z,87.22
2023-03-11T02:14:31.754Z,87.01
2023-03-11T02:16:58.806Z,86.74
2023-03-11T02:19:40.382Z,87.80
2023-03-11T02:22:07.761Z,87.74
2023-03-11T02:24:45.519Z,86.38
2023-03-11T02:27:13.761Z,87.29
2023-03-11T02:29:41.076Z,87.77
2023-03-11T02:32:10.516Z,87.07
2023-03-11T02:34:39.512Z,88.39
2023-03-11T02:37:11.212Z,87.67
2023-03-11T02:39:40.252Z,87.14
2023-03-11T02:42:28.129Z,88.29
2023-03-11T02:45:11.255Z,87.26
2023-03-11T02:47:39.147Z,87.48
2023-03-11T02:50:06.884Z,87.93
2023-03-11T02:52:35.507Z,87.27
2023-03-11T02:55:02.065Z,87.71
2023-03-11T02:57:28.506Z,88.64
2023-03-11T02:59:55.057Z,89.16
2023-03-11T03:02:21.514Z,87.84
2023-03-11T03:04:47.930Z,87.65
2023-03-11T03:07:14.388Z,87.89
2023-03-11T03:09:40.899Z,89.04
2023-03-11T03:12:13.198Z,88.79
2023-03-11T03:14:40.176Z,87.98
2023-03-11T03:17:06.988Z,89.17
2023-03-11T03:19:33.464Z,88.91
2023-03-11T03:21:59.893Z,89.71
2023-03-11T03:24:26.331Z,89.43
2023-03-11T03:26:52.819Z,88.92
2023-03-11T03:29:19.727Z,89.15
2023-03-11T03:31:46.510Z,89.25
2023-03-11T03:34:13.016Z,89.71
2023-03-11T03:36:39.775Z,89.17
2023-03-11T03:39:06.399Z,89.78
2023-03-11T03:41:34.336Z,90.05
2023-03-11T03:44:01.106Z,90.82
2023-03-11T03:46:27.566Z,91.03
2023-03-11T03:48:53.996Z,90.45
2023-03-11T03:51:20.496Z,90.91
2023-03-11T03:53:47.028Z,92.28
2023-03-11T03:56:15.800Z,90.99
2023-03-11T03:58:42.297Z,90.87
2023-03-11T04:01:10.700Z,91.25
2023-03-11T04:03:38.909Z,91.51
2023-03-11T04:06:11.627Z,91.35
2023-03-11T04:08:38.242Z,91.44
2023-03-11T04:11:04.830Z,91.66
2023-03-11T04:13:31.419Z,92.14
2023-03-11T04:15:57.868Z,91.41
2023-03-11T04:18:24.359Z,93.40
2023-03-11T04:20:50.883Z,93.41
2023-03-11T04:23:17.326Z,93.67
2023-03-11T04:25:43.830Z,94.16
2023-03-11T04:28:10.361Z,93.42
2023-03-11T04:30:39.870Z,93.53
2023-03-11T04:33:06.375Z,92.38
2023-03-11T04:35:33.164Z,92.80
2023-03-11T04:38:00.748Z,93.77
2023-03-11T04:40:27.266Z,94.02
2023-03-11T04:42:53.907Z,94.65
2023-03-11T04:45:20.389Z,95.43
2023-03-11T04:47:50.919Z,95.73
2023-03-11T04:50:18.334Z,95.10
2023-03-11T04:52:45.210Z,95.92
2023-03-11T04:55:13.784Z,95.30
2023-03-11T04:57:41.545Z,93.90
2023-03-11T05:00:11.002Z,93.78
2023-03-11T05:02:38.806Z,94.62
2023-03-11T05:05:06.315Z,94.52
2023-03-11T05:07:32.822Z,96.15
2023-03-11T05:09:59.240Z,96.03
2023-03-11T05:12:25.995Z,96.66
2023-03-11T05:14:52.451Z,95.53
2023-03-11T05:17:21.906Z,94.96
2023-03-11T05:19:48.771Z,95.38
2023-03-11T05:22:15.187Z,94.63
2023-03-11T05:24:41.658Z,95.49
2023-03-11T05:27:08.312Z,95.04
2023-03-11T05:29:34.758Z,95.95
2023-03-11T05:32:01.245Z,96.20
2023-03-11T05:34:27.705Z,95.46
2023-03-11T05:36:54.158Z,96.42
2023-03-11T05:39:20.610Z,97.39
2023-03-11T05:41:47.549Z,97.01
2023-03-11T05:44:13.981Z,97.52
2023-03-11T05:46:40.535Z,97.05
2023-03-11T05:49:07.006Z,97.10
2023-03-11T05:51:33.500Z,98.32
2023-03-11T05:54:00.446Z,97.62
2023-03-11T05:56:26.994Z,97.64
2023-03-11T05:58:53.425Z,97.99
2023-03-11T06:01:20.942Z,98.54
2023-03-11T06:03:47.532Z,98.21
2023-03-11T06:06:14.659Z,97.92
2023-03-11T06:08:45.977Z,97.96
2023-03-11T06:11:12.510Z,97.91
2023-03-11T06:13:39.342Z,97.75
2023-03-11T06:16:06.350Z,97.92
2023-03-11T06:18:32.894Z,97.78
2023-03-11T06:20:59.894Z,98.71
2023-03-11T06:23:26.940Z,97.61
2023-03-11T06:26:04.179Z,98.40
2023-03-11T06:28:31.226Z,98.31
2023-03-11T06:31:07.311Z,97.60
2023-03-11T06:33:33.741Z,97.75
2023-03-11T06:36:01.696Z,98.44
2023-03-11T06:38:28.170Z,98.36
2023-03-11T06:40:54.617Z,98.57
2023-03-11T06:43:22.198Z,98.63
2023-03-11T06:45:49.040Z,99.29
2023-03-11T06:48:15.877Z,98.92
2023-03-11T06:50:42.528Z,99.29
2023-03-11T06:53:09.452Z,99.32
2023-03-11T06:55:36.353Z,98.79
2023-03-11T06:58:03.051Z,98.99
2023-03-11T07:00:31.157Z,98.08
2023-03-11T07:02:57.872Z,98.05
2023-03-11T07:05:24.349Z,99.41
2023-03-11T07:07:53.789Z,99.12
2023-03-11T07:10:20.332Z,98.65
2023-03-11T07:12:46.832Z,99.45
2023-03-11T07:15:14.091Z,99.03
2023-03-11T07:17:40.711Z,97.51
2023-03-11T07:20:07.701Z,97.45
2023-03-11T07:22:34.161Z,96.48
2023-03-11T07:25:00.626Z,96.52
2023-03-11T07:27:28.198Z,96.86
2023-03-11T07:29:54.686Z,95.08
2023-03-11T07:32:21.208Z,96.38
2023-03-11T07:34:47.656Z,95.93
2023-03-11T07:37:14.376Z,94.45
2023-03-11T07:39:40.968Z,94.06
2023-03-11T07:42:07.633Z,95.59
2023-03-11T07:44:34.193Z,94.71
2023-03-11T07:47:03.400Z,94.62
2023-03-11T07:49:29.908Z,94.47
2023-03-11T07:51:56.413Z,94.74
2023-03-11T07:54:22.850Z,94.20
2023-03-11T07:56:49.556Z,93.32
2023-03-11T07:59:16.052Z,93.01
2023-03-11T08:01:47.098Z,92.02
2023-03-11T08:04:16.948Z,93.04
2023-03-11T08:06:45.699Z,91.67
2023-03-11T08:09:12.184Z,90.02
2023-03-11T08:11:38.822Z,89.45
2023-03-11T08:14:05.533Z,88.81
2023-03-11T08:16:32.084Z,88.44
2023-03-11T08:18:58.570Z,87.79
2023-03-11T08:21:26.683Z,86.47
2023-03-11T08:23:53.293Z,86.36
2023-03-11T08:26:21.823Z,86.14
2023-03-11T08:28:49.410Z,84.63
2023-03-11T08:31:21.974Z,85.49
2023-03-11T08:33:50.160Z,85.39
2023-03-11T08:36:17.779Z,84.65
2023-03-11T08:38:45.155Z,83.85
2023-03-11T08:41:11.881Z,84.19
2023-03-11T08:43:38.337Z,83.49
2023-03-11T08:46:08.219Z,82.87
2023-03-11T08:48:36.814Z,81.25
2023-03-11T08:51:09.758Z,83.04
2023-03-11T08:53:37.647Z,80.82
2023-03-11T08:56:04.390Z,79.94
2023-03-11T08:58:31.007Z,80.83
2023-03-11T09:00:57.665Z,79.09
2023-03-11T09:03:24.135Z,80.57
2023-03-11T09:05:57.171Z,79.65
2023-03-11T09:08:23.647Z,79.69
2023-03-11T09:10:50.075Z,80.38
2023-03-11T09:13:16.501Z,75.01
2023-03-11T09:15:43.053Z,76.25
2023-03-11T09:18:12.844Z,72.94
2023-03-11T09:20:40.504Z,73.45
2023-03-11T09:23:07.874Z,69.44
2023-03-11T09:25:34.329Z,70.41
2023-03-11T09:28:00.993Z,70.65
2023-03-11T09:30:27.436Z,68.94
2023-03-11T09:32:54.116Z,70.81
2023-03-11T09:35:20.742Z,70.64
2023-03-11T09:37:47.179Z,69.66
2023-03-11T09:40:19.416Z,69.47
2023-03-11T09:42:57.563Z,71.87
2023-03-11T09:45:32.251Z,73.31
2023-03-11T09:48:28.856Z,69.46
2023-03-11T09:51:00.942Z,67.48
2023-03-11T09:53:44.864Z,70.69
2023-03-11T09:56:13.921Z,69.91
2023-03-11T09:58:42.199Z,71.24
2023-03-11T10:01:24.430Z,70.22
2023-03-11T10:03:54.376Z,69.37
2023-03-11T10:06:26.259Z,71.00
2023-03-11T10:09:26.791Z,71.69
2023-03-11T10:12:31.060Z,71.65
2023-03-11T10:15:28.432Z,71.47
2023-03-11T10:18:04.224Z,72.57
2023-03-11T10:20:40.210Z,70.13
2023-03-11T10:23:22.372Z,66.52
2023-03-11T10:25:56.708Z,62.38
2023-03-11T10:28:47.390Z,65.19
2023-03-11T10:31:21.585Z,66.51
2023-03-11T10:33:52.315Z,63.02
2023-03-11T10:36:26.476Z,67.56
2023-03-11T10:38:56.271Z,66.57
2023-03-11T10:41:37.259Z,65.29
2023-03-11T10:44:11.948Z,63.02
2023-03-11T10:46:38.385Z,64.88
2023-03-11T10:49:08.367Z,67.24
2023-03-11T10:51:35.198Z,66.06
2023-03-11T10:54:03.463Z,64.08
2023-03-11T10:56:37.372Z,60.07
2023-03-11T10:59:06.197Z,62.42
2023-03-11T11:01:32.813Z,62.14
2023-03-11T11:04:01.843Z,64.18
2023-03-11T11:06:31.405Z,62.57
2023-03-11T11:09:17.767Z,63.15
2023-03-11T11:12:06.330Z,64.63
2023-03-11T11:14:52.768Z,64.19
2023-03-11T11:17:32.886Z,66.05
2023-03-11T11:20:01.460Z,63.39
2023-03-11T11:22:28.678Z,63.48
2023-03-11T11:24:56.051Z,63.21
2023-03-11T11:27:23.917Z,62.88
2023-03-11T11:30:15.282Z,60.99
2023-03-11T11:32:42.328Z,60.43
2023-03-11T11:35:13.003Z,63.79
2023-03-11T11:37:42.319Z,62.15
2023-03-11T11:40:14.747Z,60.58
2023-03-11T11:42:51.713Z,61.71
2023-03-11T11:45:28.457Z,60.27
2023-03-11T11:47:58.431Z,59.53
2023-03-11T11:50:44.622Z,59.01
2023-03-11T11:53:32.906Z,57.37
2023-03-11T11:55:59.676Z,55.19
2023-03-11T11:58:26.121Z,58.72
2023-03-11T12:01:02.864Z,59.64
2023-03-11T12:03:57.916Z,56.82
2023-03-11T12:06:43.108Z,59.47
2023-03-11T12:09:47.599Z,54.93
2023-03-11T12:12:32.218Z,57.71
2023-03-11T12:15:09.896Z,58.16
2023-03-11T12:17:39.373Z,57.71
2023-03-11T12:20:14.669Z,53.57
2023-03-11T12:23:10.175Z,57.35
2023-03-11T12:25:56.344Z,55.47
2023-03-11T12:28:58.384Z,54.34
2023-03-11T12:31:27.582Z,56.05
2023-03-11T12:34:03.258Z,54.49
2023-03-11T12:36:31.163Z,53.79
2023-03-11T12:38:58.467Z,55.67
2023-03-11T12:41:31.848Z,54.90
2023-03-11T12:44:01.285Z,50.84
2023-03-11T12:47:12.253Z,55.74
2023-03-11T12:49:44.054Z,55.89
2023-03-11T12:52:13.620Z,55.15
2023-03-11T12:54:44.970Z,54.17
2023-03-11T12:57:17.807Z,53.19
2023-03-11T13:00:09.846Z,57.34
2023-03-11T13:03:01.261Z,51.65
2023-03-11T13:05:54.203Z,53.83
2023-03-11T13:08:46.220Z,57.13
2023-03-11T13:11:31.510Z,54.73
2023-03-11T13:14:20.030Z,54.42
2023-03-11T13:16:46.822Z,53.20
2023-03-11T13:19:35.084Z,54.93
2023-03-11T13:22:05.577Z,55.11
2023-03-11T13:24:31.975Z,54.02
2023-03-11T13:26:58.350Z,54.13
2023-03-11T13:29:24.763Z,52.02
2023-03-11T13:32:20.449Z,50.92
2023-03-11T13:35:10.408Z,53.54
2023-03-11T13:38:12.411Z,52.86
2023-03-11T13:40:41.463Z,53.69
2023-03-11T13:43:20.735Z,50.69
2023-03-11T13:45:56.640Z,50.68
2023-03-11T13:48:30.933Z,53.90
2023-03-11T13:51:18.078Z,51.31
2023-03-11T13:53:49.757Z,49.15
2023-03-11T13:56:35.134Z,51.36
2023-03-11T13:59:35.001Z,52.95
2023-03-11T14:02:20.455Z,53.89
2023-03-11T14:04:53.216Z,52.96
2023-03-11T14:07:24.460Z,49.34
2023-03-11T14:09:51.093Z,52.09
2023-03-11T14:12:19.160Z,53.43
2023-03-11T14:14:54.748Z,52.89
2023-03-11T14:17:21.418Z,51.31
2023-03-11T14:20:04.637Z,53.82
2023-03-11T14:22:31.685Z,52.56
2023-03-11T14:25:00.168Z,53.21
2023-03-11T14:27:26.646Z,53.54
2023-03-11T14:29:53.176Z,48.81
2023-03-11T14:32:31.854Z,53.36
2023-03-11T14:34:58.859Z,52.46
2023-03-11T14:37:31.168Z,53.54
2023-03-11T14:39:57.651Z,52.43
2023-03-11T14:42:29.705Z,52.10
2023-03-11T14:45:05.016Z,53.78
2023-03-11T14:47:50.187Z,53.65
2023-03-11T14:50:19.586Z,52.81
2023-03-11T14:52:52.755Z,53.13
2023-03-11T14:55:22.503Z,53.00
2023-03-11T14:58:03.071Z,52.59
2023-03-11T15:00:34.298Z,51.58
2023-03-11T15:03:35.971Z,52.11
2023-03-11T15:06:23.790Z,53.05
2023-03-11T15:08:55.748Z,53.40
2023-03-11T15:11:25.161Z,51.92
2023-03-11T15:13:53.017Z,53.13
2023-03-11T15:16:26.188Z,51.46
2023-03-11T15:18:54.350Z,50.61
2023-03-11T15:21:23.383Z,52.47
2023-03-11T15:23:50.761Z,52.82
2023-03-11T15:26:20.535Z,52.84
2023-03-11T15:28:55.734Z,48.98
2023-03-11T15:31:23.250Z,52.12
2023-03-11T15:33:51.515Z,53.42
2023-03-11T15:36:39.252Z,51.65
2023-03-11T15:39:08.736Z,51.17
2023-03-11T15:41:35.145Z,51.89
2023-03-11T15:44:04.086Z,49.01
2023-03-11T15:46:30.600Z,50.80
2023-03-11T15:48:57.377Z,51.00
2023-03-11T15:51:23.878Z,53.89
2023-03-11T15:53:50.341Z,51.47
2023-03-11T15:56:23.623Z,52.54
2023-03-11T15:58:50.433Z,53.28
2023-03-11T16:01:18.334Z,53.84
2023-03-11T16:03:44.882Z,51.39
2023-03-11T16:06:11.428Z,52.96
2023-03-11T16:08:37.882Z,50.93
2023-03-11T16:11:04.443Z,51.50
2023-03-11T16:13:30.918Z,52.56
2023-03-11T16:15:57.397Z,52.64
2023-03-11T16:18:24.069Z,52.46
2023-03-11T16:20:52.283Z,54.47
2023-03-11T16:23:18.672Z,53.61
2023-03-11T16:25:45.463Z,53.06
2023-03-11T16:28:13.817Z,52.59
2023-03-11T16:30:40.236Z,52.82
2023-03-11T16:33:06.797Z,53.33
2023-03-11T16:35:33.765Z,52.30
2023-03-11T16:38:00.343Z,53.40
2023-03-11T16:40:29.483Z,53.41
2023-03-11T16:43:10.278Z,54.11
2023-03-11T16:45:37.137Z,53.73
2023-03-11T16:48:05.483Z,53.87
2023-03-11T16:50:33.333Z,54.25
2023-03-11T16:53:00.553Z,53.83
2023-03-11T16:55:27.731Z,53.21
2023-03-11T16:57:55.962Z,52.83
2023-03-11T17:00:22.554Z,54.04
2023-03-11T17:02:49.036Z,54.11
2023-03-11T17:05:15.534Z,55.20
2023-03-11T17:07:42.221Z,53.45
2023-03-11T17:10:10.567Z,54.96
2023-03-11T17:12:37.403Z,54.60
2023-03-11T17:15:05.434Z,55.69
2023-03-11T17:17:32.017Z,54.49
2023-03-11T17:19:58.499Z,55.64
2023-03-11T17:22:25.192Z,54.70
2023-03-11T17:24:51.704Z,56.09
2023-03-11T17:27:18.122Z,57.42
2023-03-11T17:29:44.579Z,55.66
2023-03-11T17:32:16.833Z,55.34
2023-03-11T17:34:43.591Z,56.34
2023-03-11T17:37:10.146Z,56.04
2023-03-11T17:39:36.621Z,60.23
2023-03-11T17:42:05.921Z,60.21
2023-03-11T17:44:48.528Z,61.26
2023-03-11T17:47:17.878Z,62.15
2023-03-11T17:49:44.354Z,62.19
2023-03-11T17:52:11.036Z,63.13
2023-03-11T17:54:38.373Z,64.06
2023-03-11T17:57:04.819Z,64.65
2023-03-11T17:59:31.278Z,65.47
2023-03-11T18:01:57.759Z,65.81
2023-03-11T18:04:24.327Z,66.00
2023-03-11T18:06:52.584Z,66.41
2023-03-11T18:09:18.981Z,65.32
2023-03-11T18:11:45.466Z,65.81
2023-03-11T18:14:12.638Z,66.25
2023-03-11T18:16:39.668Z,67.59
2023-03-11T18:19:06.169Z,67.83
2023-03-11T18:21:32.636Z,68.00
2023-03-11T18:24:00.555Z,68.13
2023-03-11T18:26:28.301Z,68.66
2023-03-11T18:28:56.296Z,68.36
2023-03-11T18:31:24.451Z,69.12
2023-03-11T18:33:56.494Z,70.76
2023-03-11T18:36:26.044Z,69.95
2023-03-11T18:38:53.478Z,69.74
2023-03-11T18:41:20.288Z,70.99
2023-03-11T18:43:47.104Z,71.64
2023-03-11T18:46:15.703Z,72.98
2023-03-11T18:48:42.577Z,72.25
2023-03-11T18:51:09.404Z,73.10
2023-03-11T18:53:36.458Z,72.77
2023-03-11T18:56:08.231Z,74.04
2023-03-11T18:58:34.679Z,75.35
2023-03-11T19:01:06.331Z,73.61
2023-03-11T19:03:32.942Z,74.42
2023-03-11T19:05:59.800Z,76.13
2023-03-11T19:08:26.981Z,73.83
2023-03-11T19:10:53.773Z,75.73
2023-03-11T19:13:20.520Z,75.08
2023-03-11T19:15:47.138Z,76.32
2023-03-11T19:18:13.846Z,75.62
2023-03-11T19:20:40.505Z,76.84
2023-03-11T19:23:07.830Z,75.77
2023-03-11T19:25:34.736Z,75.53
2023-03-11T19:28:01.441Z,76.90
2023-03-11T19:30:28.136Z,77.34
2023-03-11T19:32:54.811Z,76.47
2023-03-11T19:35:22.967Z,77.56
2023-03-11T19:37:50.301Z,77.12
2023-03-11T19:40:17.624Z,76.70
2023-03-11T19:42:44.202Z,76.28
2023-03-11T19:45:11.253Z,77.85
2023-03-11T19:47:38.348Z,77.04
2023-03-11T19:50:05.321Z,77.51
2023-03-11T19:52:31.725Z,77.74
2023-03-11T19:54:58.293Z,77.92
2023-03-11T19:57:24.782Z,78.46
2023-03-11T19:59:51.238Z,77.66
2023-03-11T20:02:17.910Z,77.79
2023-03-11T20:04:44.436Z,79.86
2023-03-11T20:07:10.938Z,79.06
2023-03-11T20:09:37.499Z,78.90
2023-03-11T20:12:04.346Z,77.60
2023-03-11T20:14:30.864Z,79.02
2023-03-11T20:16:57.508Z,79.70
2023-03-11T20:19:23.984Z,80.57
2023-03-11T20:21:50.486Z,81.31
2023-03-11T20:24:17.056Z,80.16
2023-03-11T20:26:43.506Z,79.80
2023-03-11T20:29:10.279Z,81.78
2023-03-11T20:31:37.143Z,82.18
2023-03-11T20:34:03.736Z,79.89
2023-03-11T20:36:32.906Z,80.90
2023-03-11T20:38:59.594Z,80.94
2023-03-11T20:41:27.555Z,82.50
2023-03-11T20:43:56.159Z,81.74
2023-03-11T20:46:23.190Z,81.74
2023-03-11T20:48:49.708Z,83.36
2023-03-11T20:51:20.283Z,81.84
2023-03-11T20:53:47.776Z,82.25
2023-03-11T20:56:16.834Z,80.95
2023-03-11T20:58:44.372Z,82.13
2023-03-11T21:01:13.137Z,82.14
2023-03-11T21:03:39.747Z,82.72
2023-03-11T21:06:22.941Z,82.86
2023-03-11T21:08:52.822Z,83.31
2023-03-11T21:11:19.412Z,82.79
2023-03-11T21:13:46.166Z,83.64
2023-03-11T21:16:26.921Z,84.01
2023-03-11T21:18:55.345Z,84.33
2023-03-11T21:21:22.116Z,85.32
2023-03-11T21:23:49.447Z,85.32
2023-03-11T21:26:17.011Z,83.23
2023-03-11T21:28:46.409Z,83.28
2023-03-11T21:31:16.186Z,84.16
2023-03-11T21:33:42.942Z,83.84
2023-03-11T21:36:11.482Z,83.01
2023-03-11T21:38:40.441Z,83.11
2023-03-11T21:41:13.881Z,83.73
2023-03-11T21:43:41.833Z,84.63
2023-03-11T21:46:10.826Z,84.83
2023-03-11T21:48:38.777Z,85.58
2023-03-11T21:51:05.993Z,85.02
2023-03-11T21:53:32.485Z,84.55
2023-03-11T21:56:03.719Z,86.05
2023-03-11T21:58:30.841Z,86.65
2023-03-11T22:00:57.692Z,85.27
2023-03-11T22:03:24.328Z,86.55
2023-03-11T22:06:05.222Z,85.74
2023-03-11T22:08:32.019Z,86.98
2023-03-11T22:10:58.612Z,85.93
2023-03-11T22:13:25.597Z,86.53
2023-03-11T22:15:52.186Z,86.18
2023-03-11T22:18:18.615Z,86.17
2023-03-11T22:20:47.451Z,86.31
2023-03-11T22:23:14.339Z,86.38
2023-03-11T22:25:40.807Z,86.55
2023-03-11T22:28:10.293Z,86.78
2023-03-11T22:30:39.831Z,87.83
2023-03-11T22:33:06.650Z,86.47
2023-03-11T22:35:33.189Z,88.17
2023-03-11T22:37:59.721Z,87.37
2023-03-11T22:40:26.868Z,87.59
2023-03-11T22:42:55.783Z,87.07
2023-03-11T22:45:22.955Z,87.48
2023-03-11T22:47:50.415Z,87.37
2023-03-11T22:50:17.994Z,88.91
2023-03-11T22:52:44.520Z,88.24
2023-03-11T22:55:11.266Z,88.16
2023-03-11T22:57:38.952Z,88.81
2023-03-11T23:00:20.814Z,88.08
2023-03-11T23:02:48.801Z,87.87
2023-03-11T23:05:15.906Z,87.69
2023-03-11T23:07:42.507Z,88.77
2023-03-11T23:10:11.262Z,88.71
2023-03-11T23:12:37.933Z,87.83
2023-03-11T23:15:06.893Z,87.14
2023-03-11T23:17:33.466Z,88.22
2023-03-11T23:20:00.035Z,86.74
2023-03-11T23:22:26.769Z,88.34
2023-03-11T23:24:56.065Z,87.67
2023-03-11T23:27:22.565Z,89.33
2023-03-11T23:29:50.500Z,88.61
2023-03-11T23:32:16.970Z,88.43
2023-03-11T23:34:43.719Z,88.15
2023-03-11T23:37:10.274Z,88.11
2023-03-11T23:39:36.792Z,88.96
2023-03-11T23:42:14.981Z,89.23
2023-03-11T23:44:48.996Z,90.39
2023-03-11T23:47:15.435Z,89.28
2023-03-11T23:49:41.884Z,90.40
2023-03-11T23:52:08.626Z,89.89
2023-03-11T23:54:37.289Z,89.89
2023-03-11T23:57:03.922Z,89.78
2023-03-11T23:59:30.384Z,89.79
